Flight Track Log - Related Links

Times and Time Zones

All times are in EDT time to prevent confusion due to time zone crossing. See the UPS1121 flight status page for this flight to view local times or setup timezone preferences in your user account.


Time Position Orientation Groundspeed Altitude Reporting Facility
EDT Latitude Longitude Course Direction KTS MPH feet Rate Location/Type
Mon 10:04:24 PM 41.8602 -72.6899 153° Southeast 248 285 4,900  Level FlightAware ADS-B (SPU / LDSP)
Mon 10:04:40 PM 41.8427 -72.6780 154° Southeast 272 313 5,500 2,757 Climbing FlightAware ADS-B (KSNC)
Mon 10:05:01 PM 41.8186 -72.6622 155° Southeast 286 329 6,600 3,488 Climbing FlightAware ADS-B (KSNC)
Mon 10:05:23 PM 41.7919 -72.6468 158° South 295 339 8,000 3,488 Climbing FlightAware ADS-B (KSNC)
Mon 10:05:44 PM 41.7635 -72.6311 157° South 307 353 9,100 3,059 Climbing FlightAware ADS-B (KSNC)
Mon 10:06:14 PM 41.7230 -72.6066 155° Southeast 328 377 10,600 2,700 Climbing FlightAware ADS-B (KSNC)
Mon 10:06:44 PM 41.6803 -72.5782 153° Southeast 356 410 11,800 2,746 Climbing FlightAware ADS-B (KSNC)
Mon 10:07:13 PM 41.6414 -72.5465 140° Southeast 364 419 13,300 2,375 Climbing FlightAware ADS-B (KSNC)
Mon 10:07:32 PM 41.6160 -72.5113 129° Southeast 361 415 13,700 750 Climbing FlightAware ADS-B (KSNC)
Mon 10:07:53 PM 41.5914 -72.4797 147° Southeast 359 413 13,800 286 Climbing FlightAware ADS-B (KSNC)
Mon 10:08:14 PM 41.5589 -72.4636 172° South 351 404 13,900 194 Climbing FlightAware ADS-B (KSNC)
Mon 10:08:24 PM 41.5437 -72.4628 184° South 347 399 13,900  Level FlightAware ADS-B (KSNC)
Mon 10:08:35 PM 41.5274 -72.4663 195° South 344 396 13,900  Level FlightAware ADS-B (KSNC)
Mon 10:08:55 PM 41.4974 -72.4835 206° Southwest 342 394 13,900 1,612 Level FlightAware ADS-B (KSNC)
Mon 10:09:42 PM 41.4329 -72.5279 208° Southwest 335 386 15,700 2,828 Climbing FlightAware ADS-B (KSNC)
Mon 10:10:22 PM 41.3760 -72.5668 207° Southwest 337 388 18,000 3,211 Climbing FlightAware ADS-B (KSNC)
Mon 10:10:53 PM 41.3355 -72.5942 207° Southwest 335 386 19,500 1,579 Climbing FlightAware ADS-B (KSNC)
Mon 10:11:38 PM 41.2725 -72.6369 207° Southwest 335 386 20,000 395 Climbing FlightAware ADS-B (KSNC)
Mon 10:12:09 PM 41.2322 -72.6641 207° Southwest 331 381 20,000  Level FlightAware ADS-B (KSNC)
Mon 10:12:51 PM 41.1715 -72.7051 207° Southwest 330 380 20,000  Level FlightAware ADS-B (KSNC)
Mon 10:13:30 PM 41.1182 -72.7411 207° Southwest 331 381 20,000  Level FlightAware ADS-B (KSNC)
Mon 10:14:01 PM 41.0759 -72.7697 207° Southwest 331 381 20,000  Level FlightAware ADS-B (KSNC)
Mon 10:14:33 PM 41.0342 -72.8010 218° Southwest 325 374 20,000  Level FlightAware ADS-B (KSNC)
Mon 10:15:19 PM 40.9816 -72.8605 221° Southwest 323 372 20,000  Level FlightAware ADS-B (KSNC)
Mon 10:15:49 PM 40.9487 -72.8983 221° Southwest 323 372 20,000  Level FlightAware ADS-B (KSNC)
Mon 10:16:30 PM 40.9005 -72.9450 208° Southwest 331 381 20,000  Level FlightAware ADS-B (KSNC)
Mon 10:17:00 PM 40.8579 -72.9718 205° Southwest 333 383 20,000  Level FlightAware ADS-B (KSNC)
Mon 10:17:41 PM 40.7998 -73.0068 205° Southwest 332 382 20,000  Level FlightAware ADS-B (KSNC)
Mon 10:18:11 PM 40.7570 -73.0329 205° Southwest 330 380 20,000  Level FlightAware ADS-B (KSNC)
Mon 10:18:53 PM 40.6998 -73.0678 205° Southwest 331 381 20,000  Level FlightAware ADS-B (KSNC)
Mon 10:19:32 PM 40.6447 -73.1005 204° Southwest 330 380 20,000  Level FlightAware ADS-B (KSNC)
Mon 10:20:09 PM 40.5931 -73.1309 204° Southwest 330 380 20,000  Level FlightAware ADS-B (KSNC)
Mon 10:20:49 PM 40.5388 -73.1628 204° Southwest 332 382 20,000  Level FlightAware ADS-B (KSNC)
Mon 10:21:30 PM 40.4803 -73.1973 204° Southwest 332 382 20,000  Level FlightAware ADS-B (KSNC)
Mon 10:22:01 PM 40.4374 -73.2226 204° Southwest 332 382 20,000  Level FlightAware ADS-B (KSNC)
Mon 10:22:46 PM 40.3743 -73.2600 204° Southwest 333 383 20,000  Level FlightAware ADS-B (KSNC)
Mon 10:23:17 PM 40.3301 -73.2862 204° Southwest 334 384 20,000  Level FlightAware ADS-B (KSNC)
Mon 10:24:03 PM 40.2647 -73.3250 204° Southwest 334 384 20,000  Level FlightAware ADS-B (KSNC)
Mon 10:24:34 PM 40.2221 -73.3501 204° Southwest 334 384 20,000  Level FlightAware ADS-B (KSNC)
Mon 10:25:16 PM 40.1615 -73.3859 204° Southwest 334 384 20,000  Level FlightAware ADS-B (KSNC)
Mon 10:25:57 PM 40.1080 -73.4174 204° Southwest 335 386 20,000  Level FlightAware ADS-B (KSNC)
Mon 10:26:15 PM 40.0877 -73.4294 209° Southwest 334 384 20,000  Level FlightAware ADS-B
Mon 10:26:32 PM 40.1404 -73.3983 208° Southwest 334 384 20,000  Level FlightAware ADS-B
Mon 10:27:22 PM 39.9985 -73.5151 225° Southwest 327 376 20,000  Level FlightAware ADS-B
Mon 10:27:54 PM 39.9661 -73.5577 225° Southwest 327 376 20,000  Level FlightAware ADS-B
Mon 10:28:41 PM 39.9145 -73.6251 225° Southwest 327 376 20,000  Level FlightAware ADS-B
Mon 10:29:12 PM 39.8859 -73.6625 225° Southwest 327 376 20,000  Level FlightAware ADS-B
Mon 10:29:56 PM 39.8345 -73.7297 226° Southwest 328 377 20,000  Level FlightAware ADS-B
Mon 10:30:43 PM 39.7852 -73.7947 226° Southwest 329 379 20,000 -69 Level FlightAware ADS-B
Mon 10:31:23 PM 39.7412 -73.8530 225° Southwest 327 376 19,900 -1,029 Descending FlightAware ADS-B
Mon 10:31:53 PM 39.7098 -73.8943 226° Southwest 332 382 18,800 -2,000 Descending FlightAware ADS-B
Mon 10:32:23 PM 39.6777 -73.9364 225° Southwest 338 389 17,900 -1,800 Descending FlightAware ADS-B
Mon 10:33:23 PM 39.6105 -74.0236 225° Southwest 336 387 16,100 -1,782 Descending FlightAware ADS-B
Mon 10:34:04 PM 39.6176 -74.0145 225° Southwest 327 376 14,900 -1,340 Descending FlightAware ADS-B
Mon 10:35:06 PM 39.5253 -74.1702 270° West 296 341 13,800 -1,339 Descending FlightAware ADS-B
Mon 10:35:56 PM 39.5267 -74.2673 272° West 292 336 12,400 -1,586 Descending FlightAware ADS-B
Mon 10:36:33 PM 39.5276 -74.3317 271° West 290 334 11,500 -1,586 Descending FlightAware ADS-B
Mon 10:37:23 PM 39.5281 -74.4187 271° West 287 330 10,100 -902 Descending FlightAware ADS-B
Mon 10:39:26 PM 39.5307 -74.6254 272° West 276 318 8,900 -474 Descending FlightAware ADS-B
Mon 10:39:55 PM 39.5315 -74.6716 272° West 276 318 8,900  Level FlightAware ADS-B
Mon 10:40:10 PM 39.5319 -74.6969 272° West 276 318 8,900  Level FlightAware ADS-B
Mon 10:40:39 PM 39.5327 -74.7469 272° West 277 319 8,900  Level FlightAware ADS-B
Mon 10:41:23 PM 39.5337 -74.8194 272° West 280 322 8,900  Level FlightAware ADS-B
Mon 10:41:55 PM 39.5344 -74.8723 271° West 277 319 8,900  Level FlightAware ADS-B
Mon 10:42:11 PM 39.5345 -74.8995 271° West 278 320 8,900 -130 Level FlightAware ADS-B
Mon 10:42:41 PM 39.5364 -74.9485 281° West 277 319 8,800  Descending FlightAware ADS-B
Mon 10:42:54 PM 39.5416 -74.9649 307° West 274 315 8,900  Climbing FlightAware ADS-B
Mon 10:43:28 PM 39.5771 -75.0010 327° Northwest 273 314 8,800  Descending FlightAware ADS-B
Mon 10:43:57 PM 39.6076 -75.0252 327° Northwest 274 315 8,900  Climbing FlightAware ADS-B
Mon 10:44:28 PM 39.6406 -75.0532 326° Northwest 272 313 8,800 -391 Descending FlightAware ADS-B
Mon 10:44:43 PM 39.6576 -75.0655 337° Northwest 267 307 8,600 -1,400 Descending FlightAware ADS-B
Mon 10:44:58 PM 39.6755 -75.0713 351° North 259 298 8,100 -1,600 Descending FlightAware ADS-B
Mon 10:45:13 PM 39.6923 -75.0735 354° North 247 284 7,800 -1,200 Descending FlightAware ADS-B
Mon 10:45:28 PM 39.7097 -75.0740 North 233 268 7,500 -1,200 Descending FlightAware ADS-B
Mon 10:45:43 PM 39.7245 -75.0687 20° North 222 255 7,200 -1,500 Descending FlightAware ADS-B
Mon 10:46:24 PM 39.7617 -75.0500 21° North 200 230 6,100 -1,500 Descending FlightAware ADS-B
Mon 10:46:39 PM 39.7747 -75.0433 22° Northeast 194 223 5,800 -1,355 Descending FlightAware ADS-B
Mon 10:46:55 PM 39.7856 -75.0373 23° Northeast 191 220 5,400 -1,525 Descending FlightAware ADS-B
Mon 10:47:38 PM 39.8234 -75.0179 North 189 217 4,300 -1,552 Descending FlightAware ADS-B
Mon 10:47:53 PM 39.8367 -75.0187 355° North 188 216 3,900 -1,400 Descending FlightAware ADS-B
Mon 10:48:08 PM 39.8501 -75.0203 354° North 187 215 3,600 -968 Descending FlightAware ADS-B
Mon 10:48:24 PM 39.8632 -75.0222 353° North 182 209 3,400 -837 Descending FlightAware ADS-B
Mon 10:48:51 PM 39.8829 -75.0297 333° Northwest 167 192 3,000 -878 Descending FlightAware ADS-B
Mon 10:49:05 PM 39.8922 -75.0372 315° West 161 185 2,800 -207 Descending FlightAware ADS-B
Mon 10:49:20 PM 39.8980 -75.0479 294° West 157 181 2,900 -400 Climbing FlightAware ADS-B
Mon 10:49:35 PM 39.9002 -75.0640 271° West 159 183 2,600 -968 Descending FlightAware ADS-B
Mon 10:49:51 PM 39.8993 -75.0788 264° West 159 183 2,400 -774 Descending FlightAware ADS-B
Mon 10:50:06 PM 39.8968 -75.0929 255° West 158 182 2,200 -1,000 Descending FlightAware ADS-B
Mon 10:50:21 PM 39.8940 -75.1068 256° West 157 181 1,900 -750 Descending FlightAware ADS-B
Mon 10:50:38 PM 39.8910 -75.1222 256° West 147 169 1,800 -625 Descending FlightAware ADS-B
Mon 10:51:09 PM 39.8865 -75.1464 256° West 123 142 1,400 -828 Descending FlightAware ADS-B
Mon 10:51:36 PM 39.8830 -75.1644 256° West 108 124 1,000 -698 Descending FlightAware ADS-B
Mon 10:51:52 PM 39.8810 -75.1741 257° West 109 125 900 -522 Descending FlightAware ADS-B
Mon 10:52:22 PM 39.8769 -75.1942 255° West 116 133 600 -545 Descending FlightAware ADS-B
Mon 10:52:47 PM 39.8739 -75.2093 256° West 119 137 400 -556 Descending FlightAware ADS-B
Mon 10:53:16 PM 39.8696 -75.2310 256° West 118 136 100 -621 Descending FlightAware ADS-B

Login

Don't have an account? Register now (free) for customized features, flight alerts, and more!